Time;durP1;ratioP1;P1;durP2;ratioP2;P2;SDS_P1;SDS_P2;PMS_P1;PMS_P2;Temp;Humidity;BMP_temperature;BMP_pressure;BME280_temperature;BME280_humidity;BME280_pressure;Samples;Min_cycle;Max_cycle;Signal;HPM_P1;HPM_P2
2023/05/23 00:01:23;;;;;;;14.95;11.13;;;;;;;13.71;89.80;101786.16;5017040;28;20053;-82
2023/05/23 00:03:49;;;;;;;14.60;10.98;;;;;;;13.64;89.94;101784.47;5000071;28;20103;-82
2023/05/23 00:06:20;;;;;;;13.15;10.50;;;;;;;13.65;89.39;101780.97;5015366;28;20508;-82
2023/05/23 00:08:48;;;;;;;13.45;11.50;;;;;;;13.60;89.51;101772.22;5008922;28;20224;-78
2023/05/23 00:11:13;;;;;;;12.63;10.77;;;;;;;13.56;89.67;101778.41;5000382;28;20030;-81
2023/05/23 00:13:39;;;;;;;13.82;10.98;;;;;;;13.54;89.38;101781.06;5002419;28;20396;-82
2023/05/23 00:16:08;;;;;;;15.65;11.15;;;;;;;13.50;89.57;101777.59;4997456;28;20405;-80
2023/05/23 00:18:35;;;;;;;11.65;10.38;;;;;;;13.52;88.99;101773.16;5050429;28;20032;-82
2023/05/23 00:21:01;;;;;;;14.65;11.07;;;;;;;13.49;89.08;101790.78;5025528;28;20041;-82
2023/05/23 00:23:28;;;;;;;12.73;10.15;;;;;;;13.47;88.47;101782.84;4984707;28;20033;-84
2023/05/23 00:25:54;;;;;;;15.98;10.40;;;;;;;13.46;89.03;101785.50;5019115;28;20025;-82
2023/05/23 00:28:21;;;;;;;14.35;10.50;;;;;;;13.44;88.99;101800.44;5005447;28;20048;-82
2023/05/23 00:30:50;;;;;;;13.10;10.50;;;;;;;13.40;88.70;101790.84;5004463;28;20021;-81
2023/05/23 00:33:18;;;;;;;14.35;10.32;;;;;;;13.37;88.70;101802.25;5010616;28;20062;-82
2023/05/23 00:35:44;;;;;;;13.23;10.77;;;;;;;13.36;88.44;101803.16;4997619;28;20030;-82
2023/05/23 00:38:10;;;;;;;19.02;9.77;;;;;;;13.36;88.51;101805.78;5015343;28;20357;-82
2023/05/23 00:40:36;;;;;;;12.98;9.82;;;;;;;13.36;88.67;101811.06;5011163;28;20072;-78
2023/05/23 00:43:01;;;;;;;15.38;10.23;;;;;;;13.36;88.04;101810.16;4999833;28;20053;-80
2023/05/23 00:45:27;;;;;;;14.13;11.15;;;;;;;13.36;88.05;101804.91;5027045;28;20065;-81
2023/05/23 00:47:54;;;;;;;16.33;11.02;;;;;;;13.34;87.95;101813.66;4992580;28;20033;-82
2023/05/23 00:50:20;;;;;;;15.90;10.40;;;;;;;13.32;87.57;101814.56;5009108;28;20545;-83
2023/05/23 00:52:47;;;;;;;14.30;9.88;;;;;;;13.31;88.13;101813.66;5025405;28;20033;-83
2023/05/23 00:55:13;;;;;;;12.23;10.35;;;;;;;13.30;87.80;101811.94;5022789;28;20022;-82
2023/05/23 00:57:39;;;;;;;16.48;10.10;;;;;;;13.29;87.16;101804.06;4992065;28;20367;-79
2023/05/23 01:00:11;;;;;;;12.55;9.52;;;;;;;13.29;87.41;101811.97;5011766;28;20026;-80
2023/05/23 01:02:42;;;;;;;13.93;10.38;;;;;;;13.30;87.07;101817.22;5012966;28;20026;-81
2023/05/23 01:05:10;;;;;;;14.05;9.88;;;;;;;13.31;87.60;101807.53;5024964;28;20143;-79
2023/05/23 01:07:35;;;;;;;15.77;10.05;;;;;;;13.30;87.31;101811.06;5022360;28;20037;-79
2023/05/23 01:10:03;;;;;;;11.80;8.98;;;;;;;13.31;86.78;101818.06;5021597;28;20108;-79
2023/05/23 01:12:44;;;;;;;13.32;9.10;;;;;;;13.30;87.03;101822.47;5009747;28;20128;-84
2023/05/23 01:15:12;;;;;;;15.40;10.48;;;;;;;13.28;87.78;101812.84;5026659;28;20029;-83
2023/05/23 01:17:47;;;;;;;14.15;9.43;;;;;;;13.28;87.77;101820.72;5026896;28;20032;-80
2023/05/23 01:20:20;;;;;;;15.23;10.13;;;;;;;13.24;87.69;101811.97;5028589;28;20087;-82
2023/05/23 01:23:01;;;;;;;13.13;9.23;;;;;;;13.24;87.89;101821.63;5020875;28;20033;-82
2023/05/23 01:25:45;;;;;;;;;;;;;;;13.29;87.66;101819.84;5019821;28;20029;-82
2023/05/23 01:28:16;;;;;;;17.25;11.07;;;;;;;13.23;88.19;101825.13;5025241;28;19948;-82
2023/05/23 01:30:44;;;;;;;15.82;10.65;;;;;;;13.24;88.33;101826.91;5024492;28;20454;-81
2023/05/23 01:33:14;;;;;;;16.80;10.82;;;;;;;13.22;88.80;101829.53;5007539;28;20033;-81
2023/05/23 01:35:42;;;;;;;22.48;11.95;;;;;;;13.17;89.35;101826.94;5036866;28;20052;-80
2023/05/23 01:38:08;;;;;;;18.85;12.77;;;;;;;13.14;89.34;101824.31;4995760;28;20125;-84
2023/05/23 01:40:33;;;;;;;26.27;13.05;;;;;;;13.15;89.53;101833.09;5010708;28;20502;-82
2023/05/23 01:42:59;;;;;;;26.95;13.85;;;;;;;13.08;89.77;101827.00;4994705;28;20488;-76
2023/05/23 01:45:27;;;;;;;27.27;13.90;;;;;;;13.04;90.60;101834.91;5004141;28;20049;-75
2023/05/23 01:47:53;;;;;;;24.00;13.88;;;;;;;13.00;90.96;101841.94;5025159;28;20033;-82
2023/05/23 01:50:19;;;;;;;23.25;14.13;;;;;;;12.95;91.22;101834.09;5013645;28;20033;-80
2023/05/23 01:52:46;;;;;;;20.90;13.43;;;;;;;12.96;91.14;101842.88;5009626;28;20029;-79
2023/05/23 01:55:17;;;;;;;21.60;13.23;;;;;;;12.93;91.14;101837.59;5003323;28;20033;-83
2023/05/23 01:57:47;;;;;;;21.60;13.00;;;;;;;12.94;91.10;101839.34;5022233;28;20112;-82
2023/05/23 02:00:14;;;;;;;21.27;12.93;;;;;;;12.90;90.90;101845.50;5028215;28;20207;-81
2023/05/23 02:02:40;;;;;;;24.80;12.75;;;;;;;12.92;90.99;101844.63;4984676;28;20034;-83
2023/05/23 02:05:05;;;;;;;23.63;12.52;;;;;;;12.93;90.92;101843.75;5008388;28;20042;-81
2023/05/23 02:07:31;;;;;;;23.13;13.13;;;;;;;12.89;90.75;101847.28;5010043;28;20048;-80
2023/05/23 02:09:56;;;;;;;23.95;14.13;;;;;;;12.87;91.29;101853.44;4994728;28;20087;-82
2023/05/23 02:12:22;;;;;;;21.88;12.52;;;;;;;12.88;90.91;101860.44;4994797;28;20049;-81
2023/05/23 02:14:48;;;;;;;20.08;12.43;;;;;;;12.87;91.26;101853.44;5019787;28;20053;-84
2023/05/23 02:17:15;;;;;;;20.35;12.93;;;;;;;12.83;91.07;101855.22;5009678;28;20132;-81
2023/05/23 02:19:41;;;;;;;22.73;13.40;;;;;;;12.82;91.46;101866.59;5010401;28;20030;-80
2023/05/23 02:22:06;;;;;;;23.48;13.02;;;;;;;12.76;91.54;101867.50;5008755;28;20048;-83
2023/05/23 02:24:32;;;;;;;23.77;14.27;;;;;;;12.73;91.69;101866.63;5013889;28;20025;-80
2023/05/23 02:26:57;;;;;;;24.05;14.00;;;;;;;12.73;91.94;101864.91;4998343;28;20038;-82
2023/05/23 02:29:22;;;;;;;21.55;13.50;;;;;;;12.72;91.87;101865.78;5014763;28;20034;-83
2023/05/23 02:31:48;;;;;;;29.60;13.98;;;;;;;12.69;92.04;101859.66;4994767;28;20038;-83
2023/05/23 02:34:13;;;;;;;23.73;14.05;;;;;;;12.70;91.67;101862.28;5026447;28;20037;-81
2023/05/23 02:36:39;;;;;;;24.13;13.05;;;;;;;12.70;92.01;101857.03;5008686;28;20087;-82
2023/05/23 02:39:08;;;;;;;24.05;13.18;;;;;;;12.67;91.52;101856.16;5007425;28;20033;-82
2023/05/23 02:41:33;;;;;;;18.60;12.65;;;;;;;12.67;91.68;101850.88;5010177;28;20108;-80
2023/05/23 02:43:58;;;;;;;17.52;11.50;;;;;;;12.67;91.37;101857.03;4988522;28;20066;-82
2023/05/23 02:46:24;;;;;;;18.33;11.48;;;;;;;12.66;91.54;101863.19;5011276;28;20479;-80
2023/05/23 02:48:51;;;;;;;17.20;10.95;;;;;;;12.65;91.37;101862.28;4986924;28;20412;-83
2023/05/23 02:51:16;;;;;;;16.23;10.52;;;;;;;12.64;91.58;101854.41;5006851;28;20029;-81
2023/05/23 02:53:42;;;;;;;14.52;10.48;;;;;;;12.67;91.40;101861.41;4987127;28;20044;-82
2023/05/23 02:56:08;;;;;;;15.32;10.82;;;;;;;12.64;91.57;101857.94;5001155;28;20095;-81
2023/05/23 02:58:35;;;;;;;17.80;10.82;;;;;;;12.64;91.80;101864.91;5012200;28;20030;-82
2023/05/23 03:01:01;;;;;;;15.75;9.60;;;;;;;12.68;90.95;101858.78;5009500;28;20381;-82
2023/05/23 03:03:27;;;;;;;20.50;11.90;;;;;;;12.68;91.71;101853.50;5010981;28;20103;-83
2023/05/23 03:05:53;;;;;;;13.18;9.38;;;;;;;12.65;90.87;101856.16;5027588;28;20037;-80
2023/05/23 03:08:19;;;;;;;13.05;9.00;;;;;;;12.67;90.80;101856.16;5009771;28;20045;-82
2023/05/23 03:10:44;;;;;;;15.07;9.07;;;;;;;12.67;90.86;101856.16;4989071;28;20033;-83
2023/05/23 03:13:10;;;;;;;12.82;8.15;;;;;;;12.64;90.79;101852.66;5029207;28;20040;-82
2023/05/23 03:15:35;;;;;;;14.80;8.25;;;;;;;12.63;91.39;101861.44;5027245;28;20124;-79
2023/05/23 03:18:01;;;;;;;13.38;8.05;;;;;;;12.61;91.30;101857.03;4984739;28;20338;-82
2023/05/23 03:20:26;;;;;;;14.15;7.93;;;;;;;12.59;91.10;101867.56;4998580;28;20030;-83
2023/05/23 03:22:52;;;;;;;13.68;7.85;;;;;;;12.56;91.29;101870.22;5004856;28;20030;-84
2023/05/23 03:25:17;;;;;;;11.38;7.57;;;;;;;12.57;91.64;101860.56;5003476;28;20032;-81
2023/05/23 03:27:42;;;;;;;10.88;7.72;;;;;;;12.54;92.00;101865.84;5011292;28;20059;-80
2023/05/23 03:30:09;;;;;;;12.80;8.15;;;;;;;12.54;92.26;101876.34;5009959;28;20546;-83
2023/05/23 03:32:35;;;;;;;12.32;7.80;;;;;;;12.52;92.52;101872.88;5013622;28;20029;-81
2023/05/23 03:35:00;;;;;;;12.43;8.30;;;;;;;12.52;92.88;101883.38;5012920;28;20098;-84
2023/05/23 03:37:25;;;;;;;11.93;7.47;;;;;;;12.47;92.70;101881.66;5024795;28;20051;-81
2023/05/23 03:39:51;;;;;;;12.60;8.05;;;;;;;12.48;93.12;101885.13;5018570;28;20088;-82
2023/05/23 03:42:17;;;;;;;10.90;7.30;;;;;;;12.46;93.08;101885.16;5010808;28;20443;-82
2023/05/23 03:44:42;;;;;;;13.10;8.57;;;;;;;12.46;93.40;101884.28;5028666;28;20029;-83
2023/05/23 03:47:08;;;;;;;11.40;7.85;;;;;;;12.47;93.31;101880.78;5012888;28;20403;-85
2023/05/23 03:49:45;;;;;;;14.00;7.95;;;;;;;12.45;93.07;101875.50;4985932;28;20041;-82
2023/05/23 03:52:11;;;;;;;11.10;8.23;;;;;;;12.50;93.09;101893.91;4989269;28;20038;-83
2023/05/23 03:54:36;;;;;;;13.07;8.52;;;;;;;12.49;93.13;101889.53;4996016;28;20484;-81
2023/05/23 03:57:04;;;;;;;12.20;9.00;;;;;;;12.49;93.58;101889.53;4995736;28;20036;-82
2023/05/23 03:59:30;;;;;;;11.30;7.88;;;;;;;12.48;93.45;101890.41;5012972;28;20018;-83
2023/05/23 04:01:57;;;;;;;15.63;8.65;;;;;;;12.50;93.47;101895.66;5000853;28;20509;-82
2023/05/23 04:04:23;;;;;;;9.48;7.65;;;;;;;12.50;93.68;101895.66;4996819;28;20048;-83
2023/05/23 04:06:49;;;;;;;14.38;8.45;;;;;;;12.50;93.18;101896.53;5000735;28;20084;-85
2023/05/23 04:09:15;;;;;;;13.18;8.65;;;;;;;12.49;94.59;101900.03;5012861;28;20049;-84
2023/05/23 04:11:41;;;;;;;15.40;8.65;;;;;;;12.50;93.61;101903.53;4994402;28;20035;-83
2023/05/23 04:14:07;;;;;;;12.88;7.95;;;;;;;12.51;93.77;101900.03;4988564;28;20597;-81
2023/05/23 04:16:34;;;;;;;13.13;8.50;;;;;;;12.50;93.70;101898.28;5016763;28;20044;-81
2023/05/23 04:19:03;;;;;;;13.40;8.35;;;;;;;12.50;93.47;101901.78;5002898;28;20091;-82
2023/05/23 04:21:28;;;;;;;16.20;8.80;;;;;;;12.51;93.19;101895.63;5013634;28;20052;-81
2023/05/23 04:23:55;;;;;;;14.15;8.90;;;;;;;12.53;93.14;101906.16;5000574;28;20033;-83
2023/05/23 04:26:20;;;;;;;13.75;8.95;;;;;;;12.52;93.33;101904.41;4996208;28;20453;-82
2023/05/23 04:28:45;;;;;;;15.85;8.93;;;;;;;12.56;93.12;101908.78;5010626;28;20037;-81
2023/05/23 04:31:11;;;;;;;14.48;8.88;;;;;;;12.54;93.01;101902.66;5008680;28;21427;-84
2023/05/23 04:33:37;;;;;;;15.23;9.38;;;;;;;12.56;92.90;101906.16;5028999;28;20103;-82
2023/05/23 04:36:03;;;;;;;17.38;9.85;;;;;;;12.55;92.74;101912.28;5004783;28;20037;-81
2023/05/23 04:38:28;;;;;;;17.25;9.90;;;;;;;12.55;92.54;101920.19;5013395;28;20041;-82
2023/05/23 04:40:53;;;;;;;17.25;9.80;;;;;;;12.57;92.71;101921.03;5011387;28;20037;-81
2023/05/23 04:43:19;;;;;;;17.88;10.60;;;;;;;12.53;92.50;101921.91;4997767;28;20051;-83
2023/05/23 04:45:48;;;;;;;21.17;10.48;;;;;;;12.53;92.57;101927.19;5013622;28;20030;-81
2023/05/23 04:48:15;;;;;;;16.55;9.35;;;;;;;12.52;92.78;101930.72;5025932;28;20033;-81
2023/05/23 04:50:41;;;;;;;18.77;9.77;;;;;;;12.52;92.72;101935.97;4990733;28;20053;-80
2023/05/23 04:53:07;;;;;;;18.13;10.95;;;;;;;12.49;92.56;101931.59;4986132;28;20097;-83
2023/05/23 04:55:32;;;;;;;18.63;10.45;;;;;;;12.50;92.52;101937.72;4996007;28;20065;-82
2023/05/23 04:57:58;;;;;;;20.45;10.60;;;;;;;12.45;91.94;101949.09;4995388;28;20091;-79
2023/05/23 05:00:24;;;;;;;22.65;11.15;;;;;;;12.47;91.76;101939.47;5003517;28;20120;-83
2023/05/23 05:02:49;;;;;;;20.55;10.35;;;;;;;12.50;91.80;101948.22;5033062;28;20048;-81
2023/05/23 05:05:15;;;;;;;22.10;10.60;;;;;;;12.47;91.73;101944.75;4994948;28;20493;-81
2023/05/23 05:07:40;;;;;;;19.17;10.93;;;;;;;12.46;91.96;101947.38;5013956;28;20097;-83
2023/05/23 05:10:08;;;;;;;18.58;10.32;;;;;;;12.47;91.34;101954.38;5020634;28;20508;-76
2023/05/23 05:12:33;;;;;;;20.40;10.93;;;;;;;12.45;91.79;101957.00;4994426;28;20045;-75
2023/05/23 05:14:59;;;;;;;21.80;11.23;;;;;;;12.47;91.76;101959.66;4994900;28;20025;-75
2023/05/23 05:17:24;;;;;;;18.73;10.80;;;;;;;12.45;91.89;101959.63;4995038;28;20482;-76
2023/05/23 05:19:50;;;;;;;17.15;10.00;;;;;;;12.47;91.88;101970.16;4996982;28;20048;-77
2023/05/23 05:22:15;;;;;;;22.17;10.95;;;;;;;12.43;91.09;101966.66;5006218;28;20056;-75
2023/05/23 05:24:40;;;;;;;23.25;11.55;;;;;;;12.38;91.13;101978.03;4997877;28;20041;-76
2023/05/23 05:27:08;;;;;;;24.38;10.98;;;;;;;12.31;91.38;101969.28;4996255;28;20087;-76
2023/05/23 05:29:35;;;;;;;25.42;12.38;;;;;;;12.27;91.76;101983.31;5012574;28;20115;-75
2023/05/23 05:32:02;;;;;;;24.77;11.63;;;;;;;12.19;91.74;101971.94;5009587;28;20097;-75
2023/05/23 05:34:28;;;;;;;28.65;12.63;;;;;;;12.12;92.00;101977.19;4996472;28;20021;-75
2023/05/23 05:36:55;;;;;;;29.48;12.48;;;;;;;12.09;92.34;101973.69;4996834;28;20091;-76
2023/05/23 05:39:23;;;;;;;29.95;12.60;;;;;;;12.09;92.21;101984.19;4997402;28;20032;-75
2023/05/23 05:41:48;;;;;;;25.30;10.90;;;;;;;12.04;92.26;101984.19;5032912;28;20354;-81
2023/05/23 05:44:14;;;;;;;33.85;12.25;;;;;;;12.02;91.95;101993.81;5012574;28;20041;-81
2023/05/23 05:46:39;;;;;;;23.88;11.10;;;;;;;12.01;92.27;102002.59;5010955;28;20060;-85
2023/05/23 05:49:05;;;;;;;27.10;11.90;;;;;;;11.98;92.50;101999.94;5028247;28;20496;-84
2023/05/23 05:51:30;;;;;;;24.70;11.20;;;;;;;11.98;93.02;101994.69;5011342;28;20029;-83
2023/05/23 05:53:56;;;;;;;29.65;11.75;;;;;;;11.96;92.73;102002.56;4994836;28;20025;-84
2023/05/23 05:56:21;;;;;;;26.25;11.35;;;;;;;11.94;92.45;102000.84;5012275;28;20034;-85
2023/05/23 05:58:48;;;;;;;24.02;11.07;;;;;;;11.88;92.23;101999.03;4997794;28;20025;-80
2023/05/23 06:01:13;;;;;;;22.00;10.52;;;;;;;11.88;92.38;102003.41;5024028;28;20037;-82
2023/05/23 06:03:49;;;;;;;25.67;11.10;;;;;;;11.87;92.51;102005.16;4993517;28;20121;-82
2023/05/23 06:06:18;;;;;;;30.80;11.13;;;;;;;11.84;92.56;102001.63;5022814;28;20053;-83
2023/05/23 06:08:44;;;;;;;25.52;10.23;;;;;;;11.85;92.83;102003.41;4978911;28;20087;-84
2023/05/23 06:11:10;;;;;;;25.85;9.88;;;;;;;11.84;91.94;102004.25;4977071;28;20344;-82
2023/05/23 06:13:36;;;;;;;24.95;9.30;;;;;;;11.79;91.90;102012.13;5022526;28;20024;-80
2023/05/23 06:16:01;;;;;;;23.58;8.80;;;;;;;11.76;91.71;102001.63;4997687;28;20037;-80
2023/05/23 06:18:27;;;;;;;18.05;8.85;;;;;;;11.74;92.14;102014.75;4998684;28;20112;-82
2023/05/23 06:20:52;;;;;;;23.23;8.68;;;;;;;11.73;92.55;102022.63;5030641;28;20083;-82
2023/05/23 06:23:18;;;;;;;20.95;8.80;;;;;;;11.73;92.24;102017.38;5011873;28;20029;-81
2023/05/23 06:25:44;;;;;;;20.85;8.88;;;;;;;11.75;91.90;102018.25;5014479;28;20149;-80
2023/05/23 06:28:09;;;;;;;20.17;8.18;;;;;;;11.73;91.47;102028.75;5025114;28;20358;-83
2023/05/23 06:30:37;;;;;;;18.52;7.80;;;;;;;11.76;91.87;102027.88;5025099;28;20179;-83
2023/05/23 06:33:02;;;;;;;21.33;8.35;;;;;;;11.73;91.36;102031.38;5018351;28;20034;-83
2023/05/23 06:35:28;;;;;;;19.08;9.05;;;;;;;11.67;91.64;102039.25;5011841;28;20065;-81
2023/05/23 06:37:53;;;;;;;15.77;8.73;;;;;;;11.62;91.53;102035.72;5009799;28;20034;-81
2023/05/23 06:40:19;;;;;;;21.73;8.73;;;;;;;11.57;91.37;102038.34;4978024;28;20045;-81
2023/05/23 06:42:44;;;;;;;18.05;7.72;;;;;;;11.52;91.18;102040.09;4996824;28;20033;-83
2023/05/23 06:45:10;;;;;;;18.73;8.32;;;;;;;11.50;91.39;102046.19;4996856;28;20135;-82
2023/05/23 06:47:35;;;;;;;15.60;8.27;;;;;;;11.44;92.13;102042.66;5007736;28;20115;-82
2023/05/23 06:50:02;;;;;;;18.80;7.78;;;;;;;11.41;92.43;102057.53;5026417;28;20434;-81
2023/05/23 06:52:28;;;;;;;18.40;7.97;;;;;;;11.42;92.30;102065.41;5001557;28;20038;-82
2023/05/23 06:54:53;;;;;;;18.45;7.93;;;;;;;11.43;92.18;102064.56;5019780;28;20025;-81
2023/05/23 06:57:19;;;;;;;16.25;7.70;;;;;;;11.47;92.09;102075.06;5026989;28;20457;-80
2023/05/23 06:59:45;;;;;;;17.35;7.95;;;;;;;11.44;91.37;102075.94;4999181;28;20347;-82
2023/05/23 07:02:12;;;;;;;22.58;8.10;;;;;;;11.45;91.13;102075.06;5006993;28;20442;-83
2023/05/23 07:04:38;;;;;;;17.88;8.88;;;;;;;11.47;90.56;102082.94;5004556;28;20069;-83
2023/05/23 07:07:03;;;;;;;20.80;7.40;;;;;;;11.48;88.85;102084.66;4982582;28;20037;-85
2023/05/23 07:09:29;;;;;;;18.42;7.15;;;;;;;11.52;88.34;102081.19;4993162;28;20085;-82
2023/05/23 07:11:54;;;;;;;18.80;7.13;;;;;;;11.50;85.47;102082.94;5019326;28;20087;-82
2023/05/23 07:14:20;;;;;;;18.92;6.85;;;;;;;11.53;85.07;102082.97;4997614;28;20056;-83
2023/05/23 07:16:45;;;;;;;17.30;7.10;;;;;;;11.62;85.43;102088.22;5005577;28;20029;-81
2023/05/23 07:19:11;;;;;;;16.02;6.20;;;;;;;11.65;83.99;102088.28;5013760;28;20029;-81
2023/05/23 07:21:36;;;;;;;14.43;6.38;;;;;;;11.73;83.25;102085.66;5005959;28;20119;-81
2023/05/23 07:24:02;;;;;;;15.70;6.53;;;;;;;11.89;84.59;102086.59;5008672;28;20044;-81
2023/05/23 07:26:27;;;;;;;12.65;6.47;;;;;;;11.92;83.94;102089.22;4986995;28;20474;-81
2023/05/23 07:28:53;;;;;;;11.85;6.10;;;;;;;12.00;82.58;102097.16;5008824;28;20033;-80
2023/05/23 07:31:18;;;;;;;14.82;6.18;;;;;;;12.04;83.15;102094.53;5008920;28;20037;-80
2023/05/23 07:33:44;;;;;;;14.95;7.47;;;;;;;12.05;80.77;102087.53;4994138;28;20076;-80
2023/05/23 07:36:10;;;;;;;15.80;7.03;;;;;;;12.08;79.72;102092.78;4998127;28;20030;-80
2023/05/23 07:38:35;;;;;;;16.38;6.50;;;;;;;12.18;79.59;102091.06;5009012;28;20415;-78
2023/05/23 07:41:01;;;;;;;18.98;6.65;;;;;;;12.31;79.06;102095.44;4983193;28;20033;-84
2023/05/23 07:43:26;;;;;;;13.85;6.28;;;;;;;12.51;77.28;102099.84;4991753;28;20124;-81
2023/05/23 07:45:51;;;;;;;16.92;6.65;;;;;;;12.67;75.06;102098.97;5022790;28;20385;-82
2023/05/23 07:48:17;;;;;;;11.48;5.88;;;;;;;13.06;76.15;102096.28;5014558;28;20769;-82
2023/05/23 07:50:44;;;;;;;14.48;6.15;;;;;;;13.07;72.82;102096.28;4991805;28;20071;-80
2023/05/23 07:53:09;;;;;;;15.30;5.75;;;;;;;13.14;72.99;102100.66;5027602;28;20029;-83
2023/05/23 07:55:35;;;;;;;22.48;6.93;;;;;;;13.06;72.53;102109.44;5005939;28;20545;-82
2023/05/23 07:58:01;;;;;;;12.82;6.45;;;;;;;12.99;72.66;102113.84;4997855;28;20539;-83
2023/05/23 08:00:27;;;;;;;18.63;7.30;;;;;;;13.00;74.03;102118.22;4997695;28;20025;-84
2023/05/23 08:02:52;;;;;;;15.48;6.32;;;;;;;13.05;75.28;102119.09;5015418;28;20033;-73
2023/05/23 08:05:18;;;;;;;18.23;6.53;;;;;;;12.98;73.90;102120.84;4990444;28;20136;-74
2023/05/23 08:07:44;;;;;;;18.17;7.38;;;;;;;13.02;74.92;102120.88;5011523;28;20026;-73
2023/05/23 08:10:09;;;;;;;11.52;6.15;;;;;;;12.90;73.51;102116.47;4995898;28;20037;-73
2023/05/23 08:12:35;;;;;;;13.85;6.68;;;;;;;12.89;74.16;102107.72;5007776;28;20030;-73
2023/05/23 08:15:01;;;;;;;13.55;5.65;;;;;;;12.82;74.48;102130.53;5013367;28;20171;-73
2023/05/23 08:17:26;;;;;;;16.98;6.03;;;;;;;12.80;75.05;102124.41;4995810;28;20204;-73
2023/05/23 08:19:52;;;;;;;10.90;5.43;;;;;;;12.87;75.16;102132.28;4997373;28;20030;-73
2023/05/23 08:22:17;;;;;;;15.93;6.28;;;;;;;12.90;75.08;102132.25;5011047;28;20087;-73
2023/05/23 08:24:43;;;;;;;10.95;5.88;;;;;;;12.91;75.05;102141.91;5037960;28;20057;-73
2023/05/23 08:27:08;;;;;;;13.85;5.38;;;;;;;12.93;75.73;102134.88;4998078;28;20037;-73
2023/05/23 08:29:34;;;;;;;9.75;5.43;;;;;;;12.95;74.96;102131.38;5011099;28;20120;-73
2023/05/23 08:32:00;;;;;;;13.35;5.13;;;;;;;13.03;74.65;102134.03;5013123;28;20316;-73
2023/05/23 08:34:25;;;;;;;15.27;5.57;;;;;;;13.10;74.30;102129.63;5012483;28;20029;-74
2023/05/23 08:36:51;;;;;;;9.30;5.05;;;;;;;13.14;75.30;102134.88;5010426;28;20029;-73
2023/05/23 08:39:17;;;;;;;11.25;4.88;;;;;;;13.15;74.76;102135.75;5015628;28;20026;-74
2023/05/23 08:41:45;;;;;;;12.45;5.00;;;;;;;13.14;75.93;102137.50;5016265;28;20385;-73
2023/05/23 08:44:10;;;;;;;12.80;5.03;;;;;;;13.11;74.79;102142.78;5032367;28;20034;-73
2023/05/23 08:46:44;;;;;;;8.98;4.60;;;;;;;13.00;75.19;102145.44;5030259;28;20191;-73
2023/05/23 08:49:13;;;;;;;10.80;4.20;;;;;;;12.90;76.04;102142.78;5018292;28;20025;-73
2023/05/23 08:51:42;;;;;;;9.90;3.88;;;;;;;12.76;76.87;102154.22;5010778;28;20467;-73
2023/05/23 08:54:09;;;;;;;10.80;3.42;;;;;;;12.68;77.71;102153.31;5027021;28;20414;-73
2023/05/23 08:56:36;;;;;;;10.50;3.50;;;;;;;12.73;78.37;102159.47;5002925;28;20021;-73
2023/05/23 08:59:03;;;;;;;12.77;3.40;;;;;;;12.86;78.23;102154.19;5004372;28;20048;-73
2023/05/23 09:01:29;;;;;;;12.55;3.47;;;;;;;13.05;77.94;102157.72;5003384;28;20167;-73
2023/05/23 09:03:55;;;;;;;13.77;3.92;;;;;;;13.22;78.19;102155.94;5009309;28;20037;-74
2023/05/23 09:06:21;;;;;;;12.95;3.95;;;;;;;13.30;75.54;102161.16;5011774;28;20478;-72
2023/05/23 09:08:46;;;;;;;13.98;3.78;;;;;;;13.30;75.55;102158.53;5031267;28;20481;-73
2023/05/23 09:11:13;;;;;;;13.75;3.83;;;;;;;13.29;73.83;102169.97;4990919;28;20180;-73
2023/05/23 09:13:39;;;;;;;14.25;3.67;;;;;;;13.35;73.83;102164.72;5029637;28;20021;-74
2023/05/23 09:16:06;;;;;;;16.88;3.25;;;;;;;13.50;72.51;102161.16;5010488;28;20508;-73
2023/05/23 09:18:40;;;;;;;17.52;3.58;;;;;;;13.56;72.24;102165.53;4993773;28;20034;-74
2023/05/23 09:21:08;;;;;;;11.98;3.75;;;;;;;13.64;70.71;102172.50;5026002;28;20351;-73
2023/05/23 09:23:35;;;;;;;14.10;3.90;;;;;;;13.69;69.57;102180.41;5030381;28;20040;-73
2023/05/23 09:26:05;;;;;;;9.20;3.05;;;;;;;13.72;69.98;102167.25;5011706;28;20042;-73
2023/05/23 09:28:32;;;;;;;13.80;3.45;;;;;;;13.74;71.23;102176.00;4992277;28;20454;-73
2023/05/23 09:30:59;;;;;;;12.07;3.63;;;;;;;13.71;67.04;102175.16;5022875;28;20030;-73
2023/05/23 09:33:34;;;;;;;12.23;3.72;;;;;;;13.66;68.62;102183.03;5006697;28;20033;-73
2023/05/23 09:36:00;;;;;;;14.32;3.53;;;;;;;13.63;67.18;102175.16;5025257;28;20033;-73
2023/05/23 09:38:28;;;;;;;15.77;3.58;;;;;;;13.56;67.19;102181.31;4979077;28;20030;-73
2023/05/23 09:40:56;;;;;;;16.02;3.40;;;;;;;13.60;68.85;102180.44;5011071;28;20017;-73
2023/05/23 09:43:22;;;;;;;10.90;3.00;;;;;;;13.61;68.75;102185.69;5028479;28;20033;-74
2023/05/23 09:45:47;;;;;;;10.40;2.83;;;;;;;13.74;68.13;102181.28;5014884;28;20048;-73
2023/05/23 09:48:13;;;;;;;14.23;3.38;;;;;;;13.77;65.89;102185.66;4998811;28;20071;-73
2023/05/23 09:50:38;;;;;;;13.23;3.70;;;;;;;13.82;66.09;102178.59;5014711;28;20083;-73
2023/05/23 09:53:04;;;;;;;11.13;2.90;;;;;;;13.91;65.75;102172.44;5031218;28;20029;-73
2023/05/23 09:55:29;;;;;;;9.07;2.97;;;;;;;13.96;64.95;102175.91;5028882;28;20486;-73
2023/05/23 09:57:57;;;;;;;16.65;3.63;;;;;;;14.01;64.78;102184.69;5014172;28;20475;-73
2023/05/23 10:00:24;;;;;;;13.75;3.20;;;;;;;14.04;64.83;102184.66;5029536;28;20362;-72
2023/05/23 10:03:11;;;;;;;15.20;4.00;;;;;;;14.06;64.52;102182.03;5018546;28;20038;-72
2023/05/23 10:05:42;;;;;;;13.50;3.20;;;;;;;14.01;64.88;102184.69;5014433;28;20036;-73
2023/05/23 10:08:13;;;;;;;13.90;3.42;;;;;;;14.13;65.08;102181.97;5030876;28;20029;-73
2023/05/23 10:11:27;;;;;;;17.05;3.58;;;;;;;14.25;65.04;102169.63;5030292;28;20029;-73
2023/05/23 10:13:53;;;;;;;15.85;3.22;;;;;;;14.31;63.13;102178.38;5027608;28;20385;-73
2023/05/23 10:16:24;;;;;;;16.13;3.92;;;;;;;14.47;62.61;102179.16;5014474;28;20055;-74
2023/05/23 10:18:56;;;;;;;11.35;3.40;;;;;;;14.72;62.65;102179.00;5020643;28;20037;-72
2023/05/23 10:21:28;;;;;;;14.07;3.95;;;;;;;14.92;62.53;102181.47;5018365;28;20489;-73
2023/05/23 10:23:54;;;;;;;16.40;3.30;;;;;;;14.96;60.58;102177.06;5023528;28;20462;-73
2023/05/23 10:26:20;;;;;;;13.35;3.80;;;;;;;14.90;61.81;102178.84;5013687;28;20097;-73
2023/05/23 10:28:48;;;;;;;13.45;3.35;;;;;;;15.00;61.00;102181.44;5006902;28;20060;-73
2023/05/23 10:31:15;;;;;;;11.73;2.95;;;;;;;15.07;60.33;102185.78;5026312;28;20488;-73
2023/05/23 10:33:50;;;;;;;12.50;3.00;;;;;;;15.21;58.80;102190.91;5010846;28;20232;-74
2023/05/23 10:36:24;;;;;;;11.85;3.67;;;;;;;15.06;59.41;102190.16;5019198;28;20029;-74
2023/05/23 10:38:57;;;;;;;12.85;3.50;;;;;;;15.13;59.42;102184.81;5034160;28;20037;-73
2023/05/23 10:41:55;;;;;;;14.35;3.33;;;;;;;15.14;58.51;102183.94;5021035;28;20087;-73
2023/05/23 10:44:29;;;;;;;14.43;3.50;;;;;;;15.20;58.81;102189.13;5017781;28;20061;-73
2023/05/23 10:47:02;;;;;;;11.60;3.38;;;;;;;15.39;58.49;102185.44;5011371;28;20038;-73
2023/05/23 10:49:50;;;;;;;11.65;3.40;;;;;;;15.57;58.20;102189.66;5022698;28;20029;-73
2023/05/23 10:52:16;;;;;;;14.23;3.85;;;;;;;15.65;57.50;102181.63;5028491;28;20033;-74
2023/05/23 10:54:48;;;;;;;13.55;3.55;;;;;;;15.78;56.97;102179.72;4999510;28;20041;-74
2023/05/23 10:57:18;;;;;;;15.43;3.65;;;;;;;15.94;58.15;102173.38;5014149;28;20033;-74
2023/05/23 10:59:49;;;;;;;16.65;3.55;;;;;;;16.17;58.14;102181.91;5013185;28;20030;-73
2023/05/23 11:02:17;;;;;;;14.35;3.92;;;;;;;16.01;56.49;102183.88;5020196;28;20042;-72
2023/05/23 11:04:43;;;;;;;13.98;4.13;;;;;;;15.94;54.99;102178.66;5016807;28;20040;-74
2023/05/23 11:07:29;;;;;;;15.15;3.90;;;;;;;16.00;56.71;102184.78;5029109;28;20045;-74
2023/05/23 11:10:09;;;;;;;14.30;4.10;;;;;;;15.98;56.52;102186.56;5029618;28;20025;-73
2023/05/23 11:12:37;;;;;;;13.20;3.58;;;;;;;16.05;55.42;102185.59;5029969;28;20021;-74
2023/05/23 11:15:20;;;;;;;13.40;3.50;;;;;;;16.06;54.90;102185.56;5029480;28;20037;-74